createdAt,value
2019-05-16T00:00:30.730Z,47.80
2019-05-16T00:02:58.976Z,48.00
2019-05-16T00:05:28.067Z,48.00
2019-05-16T00:07:59.232Z,47.70
2019-05-16T00:10:28.118Z,48.20
2019-05-16T00:12:59.575Z,48.60
2019-05-16T00:15:28.478Z,48.50
2019-05-16T00:17:58.380Z,48.70
2019-05-16T00:20:28.536Z,48.70
2019-05-16T00:22:55.908Z,48.70
2019-05-16T00:25:25.453Z,48.60
2019-05-16T00:27:54.231Z,48.60
2019-05-16T00:30:22.044Z,48.10
2019-05-16T00:32:49.166Z,48.10
2019-05-16T00:35:18.253Z,48.30
2019-05-16T00:37:45.178Z,47.90
2019-05-16T00:40:12.474Z,48.20
2019-05-16T00:42:40.550Z,48.20
2019-05-16T00:45:09.349Z,48.50
2019-05-16T00:47:38.909Z,48.00
2019-05-16T00:50:08.763Z,48.00
2019-05-16T00:52:39.471Z,48.60
2019-05-16T00:55:08.582Z,48.60
2019-05-16T00:57:38.636Z,48.40
2019-05-16T01:00:08.458Z,48.30
2019-05-16T01:02:37.995Z,48.40
2019-05-16T01:05:08.594Z,48.40
2019-05-16T01:07:39.259Z,48.40
2019-05-16T01:10:09.028Z,48.00
2019-05-16T01:12:39.153Z,48.40
2019-05-16T01:15:07.967Z,48.30
2019-05-16T01:17:35.153Z,48.70
2019-05-16T01:20:04.669Z,48.60
2019-05-16T01:22:33.155Z,48.70
2019-05-16T01:25:01.210Z,49.10
2019-05-16T01:27:29.840Z,48.90
2019-05-16T01:29:58.368Z,49.30
2019-05-16T01:32:29.212Z,49.30
2019-05-16T01:34:56.118Z,49.40
2019-05-16T01:37:23.218Z,49.40
2019-05-16T01:39:51.218Z,49.50
2019-05-16T01:42:18.645Z,49.60
2019-05-16T01:44:48.566Z,49.70
2019-05-16T01:47:15.486Z,50.10
2019-05-16T01:49:42.991Z,50.00
2019-05-16T01:52:10.872Z,49.80
2019-05-16T01:54:39.714Z,50.00
2019-05-16T01:57:08.265Z,50.40
2019-05-16T01:59:38.040Z,50.30
2019-05-16T02:02:05.694Z,50.60
2019-05-16T02:04:33.237Z,50.80
2019-05-16T02:07:01.706Z,51.20
2019-05-16T02:09:29.851Z,51.30
2019-05-16T02:11:58.932Z,51.10
2019-05-16T02:14:28.289Z,51.40
2019-05-16T02:16:58.078Z,51.30
2019-05-16T02:19:27.987Z,51.40
2019-05-16T02:21:59.487Z,51.60
2019-05-16T02:24:28.530Z,51.30
2019-05-16T02:26:58.969Z,51.80
2019-05-16T02:29:25.551Z,52.00
2019-05-16T02:31:53.646Z,52.40
2019-05-16T02:34:22.591Z,52.30
2019-05-16T02:37:10.243Z,52.50
2019-05-16T02:39:21.452Z,51.90
2019-05-16T02:41:52.018Z,52.30
2019-05-16T02:44:24.098Z,52.30
2019-05-16T02:46:50.713Z,52.60
2019-05-16T02:49:16.769Z,52.90
2019-05-16T02:51:45.823Z,52.80
2019-05-16T02:54:14.119Z,52.90
2019-05-16T02:56:42.033Z,53.10
2019-05-16T02:59:12.114Z,52.50
2019-05-16T03:01:41.596Z,52.30
2019-05-16T03:04:11.173Z,52.20
2019-05-16T03:06:41.086Z,51.60
2019-05-16T03:09:11.340Z,51.40
2019-05-16T03:11:41.950Z,51.40
2019-05-16T03:14:11.186Z,51.00
2019-05-16T03:16:41.858Z,51.00
2019-05-16T03:19:13.599Z,50.60
2019-05-16T03:21:42.103Z,50.70
2019-05-16T03:24:11.222Z,50.50
2019-05-16T03:26:40.924Z,50.40
2019-05-16T03:29:11.372Z,50.60
2019-05-16T03:31:43.610Z,50.40
2019-05-16T03:34:13.717Z,51.00
2019-05-16T03:36:43.357Z,50.90
2019-05-16T03:39:10.675Z,51.20
2019-05-16T03:41:41.531Z,51.70
2019-05-16T03:44:11.304Z,51.80
2019-05-16T03:46:41.307Z,51.60
2019-05-16T03:49:11.387Z,52.10
2019-05-16T03:51:41.524Z,52.10
2019-05-16T03:54:08.011Z,52.00
2019-05-16T03:56:35.839Z,52.20
2019-05-16T03:59:03.911Z,52.50
2019-05-16T04:01:31.636Z,52.30
2019-05-16T04:04:01.643Z,52.00
2019-05-16T04:06:31.407Z,52.20
2019-05-16T04:09:01.677Z,52.20
2019-05-16T04:11:32.113Z,51.90
2019-05-16T04:14:01.359Z,52.10
2019-05-16T04:16:31.037Z,51.90
2019-05-16T04:19:01.650Z,52.10
2019-05-16T04:21:27.358Z,52.10
2019-05-16T04:23:56.107Z,51.90
2019-05-16T04:26:23.251Z,51.70
2019-05-16T04:28:51.616Z,51.80
2019-05-16T04:31:22.065Z,51.50
2019-05-16T04:33:51.621Z,51.50
2019-05-16T04:36:21.329Z,51.00
2019-05-16T04:38:51.173Z,51.20
2019-05-16T04:41:21.207Z,51.40
2019-05-16T04:43:50.299Z,51.00
2019-05-16T04:46:20.889Z,50.70
2019-05-16T04:48:50.510Z,50.70
2019-05-16T04:51:22.018Z,50.70
2019-05-16T04:53:50.836Z,51.30
2019-05-16T04:56:21.717Z,51.00
2019-05-16T04:58:51.334Z,51.00
2019-05-16T05:01:21.475Z,50.70
2019-05-16T05:04:04.867Z,50.80
2019-05-16T05:06:20.775Z,50.60
2019-05-16T05:08:57.615Z,51.00
2019-05-16T05:11:21.477Z,51.00
2019-05-16T05:13:50.590Z,51.00
2019-05-16T05:16:20.530Z,50.80
2019-05-16T05:18:51.215Z,50.30
2019-05-16T05:21:20.810Z,50.50
2019-05-16T05:23:50.661Z,50.50
2019-05-16T05:26:20.020Z,50.30
2019-05-16T05:28:50.560Z,50.30
2019-05-16T05:31:24.586Z,50.60
2019-05-16T05:33:50.541Z,50.60
2019-05-16T05:36:17.704Z,50.80
2019-05-16T05:38:49.134Z,50.70
2019-05-16T05:41:17.042Z,50.30
2019-05-16T05:43:44.486Z,50.70
2019-05-16T05:46:12.276Z,49.80
2019-05-16T05:48:41.041Z,49.90
2019-05-16T05:51:11.277Z,49.80
2019-05-16T05:53:40.136Z,50.40
2019-05-16T05:56:07.224Z,50.10
2019-05-16T05:58:34.495Z,50.80
2019-05-16T06:01:01.656Z,50.10
2019-05-16T06:03:32.751Z,49.40
2019-05-16T06:06:01.047Z,49.60
2019-05-16T06:08:30.380Z,49.60
2019-05-16T06:10:57.335Z,50.10
2019-05-16T06:13:25.178Z,50.40
2019-05-16T06:15:52.432Z,49.80
2019-05-16T06:18:20.453Z,49.60
2019-05-16T06:20:51.193Z,49.30
2019-05-16T06:23:20.797Z,50.20
2019-05-16T06:25:50.486Z,49.60
2019-05-16T06:28:20.534Z,49.20
2019-05-16T06:30:47.680Z,49.10
2019-05-16T06:33:15.513Z,49.70
2019-05-16T06:35:44.621Z,50.00
2019-05-16T06:38:13.606Z,49.10
2019-05-16T06:40:40.752Z,48.80
2019-05-16T06:43:10.905Z,49.10
2019-05-16T06:45:40.260Z,48.80
2019-05-16T06:48:10.028Z,49.20
2019-05-16T06:50:40.227Z,48.70
2019-05-16T06:53:10.254Z,48.60
2019-05-16T06:55:40.114Z,48.80
2019-05-16T06:58:10.440Z,48.70
2019-05-16T07:00:40.581Z,48.90
2019-05-16T07:03:10.284Z,48.80
2019-05-16T07:05:40.630Z,48.80
2019-05-16T07:08:10.414Z,49.00
2019-05-16T07:10:39.837Z,48.60
2019-05-16T07:13:07.139Z,48.50
2019-05-16T07:15:35.322Z,48.70
2019-05-16T07:18:02.530Z,47.90
2019-05-16T07:20:31.585Z,47.50
2019-05-16T07:23:00.721Z,47.70
2019-05-16T07:25:29.992Z,48.00
2019-05-16T07:28:00.571Z,47.60
2019-05-16T07:30:30.298Z,47.50
2019-05-16T07:32:57.570Z,47.80
2019-05-16T07:35:24.779Z,47.10
2019-05-16T07:37:52.225Z,47.10
2019-05-16T07:40:26.580Z,47.20
2019-05-16T07:42:51.111Z,47.30
2019-05-16T07:45:20.360Z,47.10
2019-05-16T07:47:47.818Z,47.50
2019-05-16T07:50:15.193Z,46.80
2019-05-16T07:52:43.809Z,47.70
2019-05-16T07:55:11.156Z,47.80
2019-05-16T07:57:39.885Z,47.50
2019-05-16T08:00:09.666Z,47.50
2019-05-16T08:02:40.095Z,48.20
2019-05-16T08:05:06.876Z,47.90
2019-05-16T08:07:34.043Z,48.30
2019-05-16T08:10:03.138Z,47.70
2019-05-16T08:12:33.049Z,47.10
2019-05-16T08:15:00.723Z,47.10
2019-05-16T08:17:31.438Z,47.50
2019-05-16T08:20:00.496Z,48.30
2019-05-16T08:22:30.724Z,47.60
2019-05-16T08:24:59.996Z,48.50
2019-05-16T08:27:31.257Z,48.00
2019-05-16T08:29:57.864Z,48.80
2019-05-16T08:32:26.974Z,49.00
2019-05-16T08:34:54.057Z,47.50
2019-05-16T08:41:04.334Z,47.70
2019-05-16T08:43:11.778Z,47.80
2019-05-16T08:48:11.385Z,47.60
2019-05-16T08:50:06.252Z,48.10
2019-05-16T08:50:41.131Z,48.00
2019-05-16T08:53:12.903Z,47.90
2019-05-16T08:55:37.820Z,48.10
2019-05-16T08:58:04.920Z,48.30
2019-05-16T09:00:33.439Z,48.30
2019-05-16T09:03:03.208Z,48.60
2019-05-16T09:05:31.587Z,48.40
2019-05-16T09:08:00.906Z,48.20
2019-05-16T09:10:49.874Z,48.80
2019-05-16T09:12:58.884Z,48.70
2019-05-16T09:15:27.318Z,49.00
2019-05-16T09:17:57.906Z,49.40
2019-05-16T09:20:28.081Z,49.20
2019-05-16T09:22:57.533Z,49.60
2019-05-16T09:25:27.527Z,49.90
2019-05-16T09:27:56.968Z,49.80
2019-05-16T09:30:27.435Z,49.80
2019-05-16T09:32:58.586Z,50.20
2019-05-16T09:35:27.945Z,50.90
2019-05-16T09:37:54.236Z,50.40
2019-05-16T09:40:22.011Z,50.40
2019-05-16T09:42:49.604Z,50.20
2019-05-16T09:45:17.384Z,50.10
2019-05-16T09:47:44.592Z,50.70
2019-05-16T09:50:14.325Z,50.70
2019-05-16T09:52:41.553Z,50.60
2019-05-16T09:55:10.592Z,50.50
2019-05-16T09:57:37.960Z,50.70
2019-05-16T10:00:09.005Z,51.20
2019-05-16T10:02:36.699Z,51.10
2019-05-16T10:05:12.450Z,51.30
2019-05-16T10:07:38.529Z,51.30
2019-05-16T10:10:06.516Z,52.00
2019-05-16T10:12:34.522Z,52.00
2019-05-16T10:15:03.200Z,51.50
2019-05-16T10:17:30.182Z,51.80
2019-05-16T10:20:00.262Z,51.80
2019-05-16T10:22:28.185Z,51.90
2019-05-16T10:24:57.286Z,52.00
2019-05-16T10:27:26.400Z,52.10
2019-05-16T10:29:53.676Z,51.80
2019-05-16T10:32:22.232Z,52.20
2019-05-16T10:34:50.771Z,52.30
2019-05-16T10:37:18.748Z,51.80
2019-05-16T10:39:47.045Z,51.60
2019-05-16T10:42:24.907Z,52.20
2019-05-16T10:44:44.733Z,51.50
2019-05-16T10:47:11.816Z,51.70
2019-05-16T10:49:41.873Z,51.80
2019-05-16T10:52:08.577Z,52.40
2019-05-16T10:54:36.977Z,52.20
2019-05-16T10:57:04.572Z,52.10
2019-05-16T11:00:06.817Z,52.30
2019-05-16T11:02:02.524Z,52.70
2019-05-16T11:04:49.660Z,53.10
2019-05-16T11:06:59.912Z,53.50
2019-05-16T11:09:27.188Z,53.00
2019-05-16T11:11:57.100Z,53.60
2019-05-16T11:14:24.401Z,53.40
2019-05-16T11:16:52.856Z,53.60
2019-05-16T11:19:24.707Z,53.80
2019-05-16T11:21:51.883Z,53.90
2019-05-16T11:24:20.002Z,54.30
2019-05-16T11:26:48.529Z,54.20
2019-05-16T11:29:17.032Z,54.50
2019-05-16T11:31:46.777Z,54.40
2019-05-16T11:34:17.187Z,54.30
2019-05-16T11:36:47.568Z,54.40
2019-05-16T11:39:17.372Z,54.60
2019-05-16T11:41:47.522Z,54.50
2019-05-16T11:44:17.620Z,54.50
2019-05-16T11:46:48.971Z,55.00
2019-05-16T11:49:16.837Z,55.00
2019-05-16T11:51:47.144Z,55.10
2019-05-16T11:54:16.962Z,55.20
2019-05-16T11:56:46.267Z,54.90
2019-05-16T11:59:13.739Z,55.10
2019-05-16T12:01:40.998Z,55.10
2019-05-16T12:04:09.521Z,55.10
2019-05-16T12:06:37.435Z,55.40
2019-05-16T12:09:06.678Z,55.50
2019-05-16T12:11:33.931Z,55.70
2019-05-16T12:14:00.919Z,55.80
2019-05-16T12:16:29.543Z,55.60
2019-05-16T12:18:59.252Z,55.80
2019-05-16T12:21:27.586Z,56.00
2019-05-16T12:23:54.632Z,56.10
2019-05-16T12:26:21.953Z,56.00
2019-05-16T12:28:49.113Z,56.00
2019-05-16T12:31:17.368Z,55.90
2019-05-16T12:33:47.689Z,56.00
2019-05-16T12:36:14.480Z,56.10
2019-05-16T12:38:41.996Z,56.30
2019-05-16T12:41:10.240Z,56.60
2019-05-16T12:43:46.040Z,56.20
2019-05-16T12:46:07.508Z,56.10
2019-05-16T12:48:37.329Z,56.00
2019-05-16T12:51:08.312Z,56.20
2019-05-16T12:53:36.724Z,56.40
2019-05-16T12:56:05.323Z,56.10
2019-05-16T12:58:38.112Z,56.00
2019-05-16T13:01:02.562Z,56.10
2019-05-16T13:03:29.784Z,56.30
2019-05-16T13:05:57.167Z,56.00
2019-05-16T13:08:26.641Z,55.90
2019-05-16T13:10:53.783Z,56.20
2019-05-16T13:13:21.200Z,56.80
2019-05-16T13:15:48.293Z,56.80
2019-05-16T13:18:16.923Z,57.00
2019-05-16T13:20:46.771Z,57.10
2019-05-16T13:23:14.875Z,57.10
2019-05-16T13:25:43.041Z,57.00
2019-05-16T13:28:10.317Z,57.00
2019-05-16T13:30:37.960Z,57.20
2019-05-16T13:33:07.313Z,56.90
2019-05-16T13:35:37.083Z,57.00
2019-05-16T13:38:07.611Z,57.30
2019-05-16T13:40:33.668Z,57.40
2019-05-16T13:43:01.548Z,57.80
2019-05-16T13:45:28.841Z,57.30
2019-05-16T13:47:57.266Z,57.60
2019-05-16T13:50:27.102Z,57.40
2019-05-16T13:52:53.784Z,57.50
2019-05-16T13:55:20.883Z,58.00
2019-05-16T13:57:48.596Z,58.30
2019-05-16T14:00:17.418Z,58.10
2019-05-16T14:02:45.057Z,58.40
2019-05-16T14:05:14.184Z,58.50
2019-05-16T14:07:41.858Z,58.30
2019-05-16T14:10:09.497Z,58.40
2019-05-16T14:12:37.021Z,58.50
2019-05-16T14:15:08.059Z,59.10
2019-05-16T14:17:37.040Z,59.50
2019-05-16T14:20:14.474Z,59.20
2019-05-16T14:22:36.787Z,59.50
2019-05-16T14:25:07.158Z,59.40
2019-05-16T14:27:33.852Z,59.10
2019-05-16T14:30:00.954Z,59.30
2019-05-16T14:32:28.478Z,59.80
2019-05-16T14:34:58.583Z,60.30
2019-05-16T14:37:26.858Z,60.20
2019-05-16T14:39:56.772Z,60.70
2019-05-16T14:42:23.662Z,61.00
2019-05-16T14:45:06.701Z,60.50
2019-05-16T14:47:20.100Z,60.50
2019-05-16T14:49:48.854Z,61.20
2019-05-16T14:52:16.653Z,61.20
2019-05-16T14:54:46.759Z,61.20
2019-05-16T14:57:13.775Z,61.40
2019-05-16T14:59:41.123Z,62.20
2019-05-16T15:02:09.220Z,61.80
2019-05-16T15:04:37.647Z,61.80
2019-05-16T15:07:07.050Z,62.20
2019-05-16T15:09:35.047Z,61.90
2019-05-16T15:12:02.300Z,61.80
2019-05-16T15:14:29.905Z,61.90
2019-05-16T15:16:57.719Z,62.10
2019-05-16T15:19:25.208Z,62.30
2019-05-16T15:21:52.981Z,62.30
2019-05-16T15:24:20.412Z,62.60
2019-05-16T15:26:47.929Z,62.90
2019-05-16T15:29:16.491Z,63.40
2019-05-16T15:31:46.549Z,62.70
2019-05-16T15:34:13.348Z,62.30
2019-05-16T15:36:41.177Z,62.30
2019-05-16T15:39:09.436Z,62.70
2019-05-16T15:41:37.811Z,62.00
2019-05-16T15:44:07.578Z,61.90
2019-05-16T15:46:34.421Z,61.90
2019-05-16T15:49:01.982Z,61.90
2019-05-16T15:51:29.969Z,61.90
2019-05-16T15:53:57.287Z,62.10
2019-05-16T15:56:26.980Z,62.10
2019-05-16T15:58:54.147Z,62.40
2019-05-16T16:01:21.292Z,62.50
2019-05-16T16:03:48.692Z,62.30
2019-05-16T16:06:17.748Z,62.50
2019-05-16T16:08:47.087Z,62.30
2019-05-16T16:11:17.122Z,62.40
2019-05-16T16:13:45.128Z,62.10
2019-05-16T16:16:13.168Z,61.90
2019-05-16T16:18:40.253Z,62.40
2019-05-16T16:21:08.348Z,62.50
2019-05-16T16:23:37.240Z,62.50
2019-05-16T16:26:07.170Z,62.60
2019-05-16T16:28:34.312Z,63.00
2019-05-16T16:31:02.263Z,63.40
2019-05-16T16:33:30.134Z,63.50
2019-05-16T16:35:58.843Z,64.00
2019-05-16T16:38:26.577Z,64.20
2019-05-16T16:40:53.726Z,64.60
2019-05-16T16:43:24.067Z,64.90
2019-05-16T16:46:04.070Z,65.20
2019-05-16T16:48:19.315Z,65.20
2019-05-16T16:50:48.363Z,65.60
2019-05-16T16:53:17.589Z,66.20
2019-05-16T16:55:47.608Z,66.70
2019-05-16T16:58:17.604Z,66.50
2019-05-16T17:00:47.751Z,66.50
2019-05-16T17:03:16.654Z,66.70
2019-05-16T17:05:48.769Z,66.20
2019-05-16T17:08:17.340Z,66.60
2019-05-16T17:10:47.673Z,66.30
2019-05-16T17:13:16.839Z,66.30
2019-05-16T17:15:47.105Z,66.20
2019-05-16T17:18:17.201Z,66.00
2019-05-16T17:20:47.486Z,66.30
2019-05-16T17:23:14.658Z,66.30
2019-05-16T17:25:46.991Z,66.10
2019-05-16T17:28:14.255Z,66.40
2019-05-16T17:30:43.322Z,66.40
2019-05-16T17:33:13.412Z,66.50
2019-05-16T17:35:41.708Z,66.30
2019-05-16T17:38:09.827Z,66.30
2019-05-16T17:40:38.318Z,65.90
2019-05-16T17:43:07.378Z,65.70
2019-05-16T17:45:34.624Z,65.60
2019-05-16T17:48:01.953Z,66.50
2019-05-16T17:50:29.054Z,65.70
2019-05-16T17:52:57.812Z,65.40
2019-05-16T17:55:26.971Z,65.20
2019-05-16T17:57:56.879Z,65.30
2019-05-16T18:00:28.672Z,65.70
2019-05-16T18:02:53.512Z,65.70
2019-05-16T18:05:21.040Z,65.70
2019-05-16T18:07:48.364Z,65.70
2019-05-16T18:10:17.188Z,65.60
2019-05-16T18:12:44.632Z,65.50
2019-05-16T18:15:12.507Z,66.00
2019-05-16T18:17:40.172Z,66.20
2019-05-16T18:20:08.471Z,66.40
2019-05-16T18:22:36.610Z,66.30
2019-05-16T18:25:04.899Z,67.20
2019-05-16T18:27:34.328Z,66.40
2019-05-16T18:30:02.645Z,66.40
2019-05-16T18:32:30.656Z,66.30
2019-05-16T18:34:58.343Z,66.40
2019-05-16T18:37:26.635Z,66.50
2019-05-16T18:39:53.696Z,66.70
2019-05-16T18:42:21.377Z,66.80
2019-05-16T18:44:50.388Z,67.00
2019-05-16T18:47:17.864Z,67.50
2019-05-16T18:49:47.307Z,68.10
2019-05-16T18:52:17.186Z,68.70
2019-05-16T18:54:46.530Z,69.30
2019-05-16T18:57:13.715Z,69.60
2019-05-16T18:59:41.207Z,69.50
2019-05-16T19:02:10.433Z,69.90
2019-05-16T19:04:38.075Z,70.30
2019-05-16T19:07:07.628Z,70.80
2019-05-16T19:09:37.322Z,70.90
2019-05-16T19:12:06.454Z,71.40
2019-05-16T19:14:36.718Z,71.60
2019-05-16T19:17:20.625Z,72.30
2019-05-16T19:19:34.400Z,72.90
2019-05-16T19:22:01.774Z,73.00
2019-05-16T19:24:29.186Z,73.10
2019-05-16T19:26:57.364Z,73.20
2019-05-16T19:29:26.415Z,73.40
2019-05-16T19:31:53.860Z,73.40
2019-05-16T19:34:21.267Z,73.90
2019-05-16T19:36:48.913Z,74.70
2019-05-16T19:39:16.736Z,74.50
2019-05-16T19:41:43.732Z,74.70
2019-05-16T19:44:11.490Z,75.10
2019-05-16T19:46:38.860Z,75.40
2019-05-16T19:49:07.455Z,75.40
2019-05-16T19:51:36.214Z,75.80
2019-05-16T19:54:04.072Z,76.20
2019-05-16T19:56:31.126Z,76.40
2019-05-16T19:58:59.591Z,76.50
2019-05-16T20:01:28.085Z,76.50
2019-05-16T20:03:56.551Z,76.40
2019-05-16T20:06:24.073Z,76.70
2019-05-16T20:08:51.249Z,76.80
2019-05-16T20:11:18.240Z,76.90
2019-05-16T20:13:47.394Z,76.40
2019-05-16T20:16:18.106Z,76.90
2019-05-16T20:18:46.611Z,76.50
2019-05-16T20:21:18.143Z,76.70
2019-05-16T20:23:44.751Z,77.10
2019-05-16T20:26:12.916Z,76.80
2019-05-16T20:28:41.068Z,76.80
2019-05-16T20:31:08.872Z,76.80
2019-05-16T20:33:37.602Z,77.30
2019-05-16T20:36:06.826Z,77.20
2019-05-16T20:38:37.096Z,77.00
2019-05-16T20:41:04.475Z,77.10
2019-05-16T20:43:32.805Z,77.30
2019-05-16T20:46:01.041Z,77.00
2019-05-16T20:48:29.776Z,77.10
2019-05-16T20:50:58.106Z,77.50
2019-05-16T20:53:27.162Z,77.50
2019-05-16T20:55:54.196Z,77.40
2019-05-16T20:58:21.783Z,77.80
2019-05-16T21:00:49.748Z,77.80
2019-05-16T21:03:17.247Z,77.90
2019-05-16T21:05:47.971Z,78.00
2019-05-16T21:08:17.205Z,78.00
2019-05-16T21:10:46.396Z,77.80
2019-05-16T21:13:13.655Z,78.00
2019-05-16T21:15:42.257Z,78.50
2019-05-16T21:18:10.356Z,77.80
2019-05-16T21:20:38.964Z,78.10
2019-05-16T21:23:07.289Z,78.30
2019-05-16T21:25:36.969Z,78.50
2019-05-16T21:28:07.679Z,78.00
2019-05-16T21:30:36.717Z,78.10
2019-05-16T21:33:05.923Z,77.70
2019-05-16T21:35:33.679Z,78.10
2019-05-16T21:38:01.359Z,78.00
2019-05-16T21:40:31.343Z,78.60
2019-05-16T21:42:59.670Z,78.20
2019-05-16T21:45:28.711Z,78.80
2019-05-16T21:47:56.981Z,78.90
2019-05-16T21:50:27.473Z,78.40
2019-05-16T21:52:56.546Z,78.10
2019-05-16T21:55:23.585Z,78.20
2019-05-16T21:57:51.492Z,78.30
2019-05-16T22:00:26.616Z,78.20
2019-05-16T22:02:54.055Z,78.40
2019-05-16T22:05:21.988Z,78.10
2019-05-16T22:07:49.364Z,78.30
2019-05-16T22:10:16.873Z,78.60
2019-05-16T22:12:43.796Z,79.20
2019-05-16T22:15:11.295Z,79.00
2019-05-16T22:17:39.760Z,79.10
2019-05-16T22:20:07.714Z,79.00
2019-05-16T22:22:37.917Z,79.10
2019-05-16T22:25:07.445Z,78.80
2019-05-16T22:27:34.344Z,79.00
2019-05-16T22:30:02.606Z,79.10
2019-05-16T22:32:29.991Z,79.30
2019-05-16T22:34:59.939Z,79.30
2019-05-16T22:37:27.159Z,79.00
2019-05-16T22:39:57.195Z,79.30
2019-05-16T22:42:24.103Z,79.10
2019-05-16T22:44:51.984Z,79.40
2019-05-16T22:47:19.399Z,79.40
2019-05-16T22:49:47.512Z,80.00
2019-05-16T22:52:17.410Z,80.00
2019-05-16T22:54:47.422Z,79.60
2019-05-16T22:57:14.292Z,80.20
2019-05-16T22:59:41.572Z,80.30
2019-05-16T23:02:11.738Z,80.50
2019-05-16T23:04:38.984Z,80.20
2019-05-16T23:07:07.015Z,80.40
2019-05-16T23:09:36.557Z,80.20
2019-05-16T23:12:04.408Z,80.50
2019-05-16T23:14:31.513Z,80.60
2019-05-16T23:16:58.504Z,80.40
2019-05-16T23:19:26.488Z,80.60
2019-05-16T23:21:53.779Z,80.40
2019-05-16T23:24:21.048Z,80.30
2019-05-16T23:26:48.447Z,80.60
2019-05-16T23:29:16.991Z,80.60
2019-05-16T23:31:47.021Z,80.40
2019-05-16T23:34:14.309Z,80.90
2019-05-16T23:36:43.040Z,81.00
2019-05-16T23:39:10.765Z,81.10
2019-05-16T23:41:39.404Z,80.90
2019-05-16T23:44:07.426Z,80.90
2019-05-16T23:46:36.406Z,80.80
2019-05-16T23:49:04.599Z,81.00
2019-05-16T23:51:32.305Z,81.10
2019-05-16T23:53:59.421Z,81.30
2019-05-16T23:56:27.339Z,81.30
2019-05-16T23:58:57.011Z,81.30
